Hlavní strana
METAR-TAF:

METAR-TAF

Letiště :

Dyersburg, Tennessee, Spojené státy americké

zeměpisná šířka: 36-00N, zeměpisná délka: 089-24W, výška: 103 m

Aktuální stav počasí

Zpráva byla vytvořena před 37 minutami, v 04:56 UTC
Východojihovýchodní vítr 8 kt
Teplota 5°C
Vlhkost vzduchu 45%
Tlak 1020 hPa
Viditelnost: 16.1 km
Zataženo ve výšce 11000 ft

METAR: KDYR 240456Z AUTO 11008KT 10SM OVC110 05/M06 A3011 RMK AO2 SLP203 T00501061 PNO $

Čas: 23:33 (05:33 UTC)


TAF: chybějící

Stav a předpovědi počasí z více než 4 000 letišť (zprávy METAR a TAF).

Červené a žluté tečky na mapě představují dostupné meteorologické stanice.

Když kurzor umístíte na tečku, zobrazí se název stanice.

Pak kliknutím zobrazíte stav a předpověď počasí.

Chcete-li změnit mapu, kliknutím na zelené tlačítko se znaménkem +mapu přiblížíte, kliknutím na zelené tlačítko se znaménkem – mapu oddálíte a kliknutím na zelené šipky přejdete na sousední mapy.


METAR-TAF: